createdAt,value
2022-11-06T00:03:23.818Z,97.10
2022-11-06T00:06:09.791Z,97.10
2022-11-06T00:08:39.228Z,97.30
2022-11-06T00:11:10.658Z,97.40
2022-11-06T00:16:06.925Z,97.30
2022-11-06T00:18:35.030Z,97.50
2022-11-06T00:21:33.958Z,97.40
2022-11-06T00:24:02.176Z,97.60
2022-11-06T00:26:31.038Z,97.80
2022-11-06T00:28:58.101Z,97.50
2022-11-06T00:31:27.627Z,97.50
2022-11-06T00:33:55.737Z,97.50
2022-11-06T00:36:23.950Z,97.40
2022-11-06T00:38:55.506Z,97.00
2022-11-06T00:41:23.164Z,96.90
2022-11-06T00:44:10.244Z,97.10
2022-11-06T00:46:37.287Z,97.20
2022-11-06T00:49:04.538Z,97.00
2022-11-06T00:51:36.894Z,97.20
2022-11-06T00:54:05.532Z,97.40
2022-11-06T00:56:33.002Z,97.40
2022-11-06T00:59:01.286Z,97.50
2022-11-06T01:01:30.893Z,97.20
2022-11-06T01:04:12.134Z,97.40
2022-11-06T01:06:41.360Z,97.40
2022-11-06T01:09:09.569Z,97.50
2022-11-06T01:12:11.213Z,97.60
2022-11-06T01:14:28.455Z,97.10
2022-11-06T01:19:23.270Z,97.50
2022-11-06T01:21:52.922Z,97.90
2022-11-06T01:24:26.761Z,97.80
2022-11-06T01:29:40.661Z,97.50
2022-11-06T01:32:07.501Z,97.90
2022-11-06T01:34:34.238Z,97.80
2022-11-06T01:37:00.949Z,97.50
2022-11-06T01:39:27.750Z,97.80
2022-11-06T01:41:55.183Z,97.80
2022-11-06T01:44:42.913Z,97.90
2022-11-06T01:47:25.193Z,97.90
2022-11-06T01:49:55.120Z,97.80
2022-11-06T01:52:23.592Z,98.00
2022-11-06T01:54:53.472Z,98.00
2022-11-06T01:57:20.744Z,97.80
2022-11-06T02:02:17.266Z,98.30
2022-11-06T02:04:46.247Z,98.20
2022-11-06T02:07:13.282Z,97.90
2022-11-06T02:09:41.565Z,98.40
2022-11-06T02:12:38.916Z,98.50
2022-11-06T02:15:14.470Z,98.30
2022-11-06T02:18:00.045Z,98.50
2022-11-06T02:20:31.484Z,98.40
2022-11-06T02:23:35.829Z,98.80
2022-11-06T02:26:44.251Z,98.70
2022-11-06T02:29:21.268Z,98.70
2022-11-06T02:31:52.405Z,98.70
2022-11-06T02:34:20.350Z,98.70
2022-11-06T02:36:55.103Z,98.80
2022-11-06T02:39:24.380Z,98.50
2022-11-06T02:41:53.446Z,98.60
2022-11-06T02:44:23.778Z,98.50
2022-11-06T02:47:02.801Z,98.20
2022-11-06T02:49:34.520Z,98.10
2022-11-06T02:52:06.667Z,98.20
2022-11-06T02:54:37.847Z,98.40
2022-11-06T02:57:14.419Z,98.50
2022-11-06T03:00:04.298Z,98.50
2022-11-06T03:02:40.820Z,98.50
2022-11-06T03:05:58.615Z,98.70
2022-11-06T03:08:37.169Z,98.70
2022-11-06T03:11:29.568Z,98.30
2022-11-06T03:14:11.452Z,98.60
2022-11-06T03:16:58.376Z,98.70
2022-11-06T03:19:30.583Z,98.90
2022-11-06T03:22:28.872Z,99.20
2022-11-06T03:25:04.559Z,99.10
2022-11-06T03:28:00.767Z,98.80
2022-11-06T03:30:27.859Z,99.00
2022-11-06T03:33:01.132Z,99.30
2022-11-06T03:35:51.514Z,99.10
2022-11-06T03:38:32.831Z,99.10
2022-11-06T03:41:09.110Z,99.30
2022-11-06T03:43:37.991Z,99.20
2022-11-06T03:46:10.839Z,99.00
2022-11-06T03:48:48.083Z,98.90
2022-11-06T03:51:28.929Z,98.90
2022-11-06T03:54:11.643Z,98.70
2022-11-06T03:56:46.057Z,99.00
2022-11-06T03:59:15.380Z,98.90
2022-11-06T04:01:45.549Z,99.60
2022-11-06T04:04:21.663Z,99.60
2022-11-06T04:06:55.418Z,99.40
2022-11-06T04:09:46.163Z,99.10
2022-11-06T04:12:35.199Z,99.30
2022-11-06T04:15:03.074Z,99.70
2022-11-06T04:17:30.256Z,99.60
2022-11-06T04:20:03.121Z,99.30
2022-11-06T04:22:58.077Z,99.00
2022-11-06T04:25:46.304Z,99.00
2022-11-06T04:28:57.304Z,99.10
2022-11-06T04:31:38.942Z,98.90
2022-11-06T04:34:31.794Z,98.80
2022-11-06T04:37:07.072Z,98.70
2022-11-06T04:39:40.594Z,98.70
2022-11-06T04:42:24.471Z,98.70
2022-11-06T04:44:57.106Z,98.40
2022-11-06T04:47:24.844Z,98.40
2022-11-06T04:49:53.710Z,98.50
2022-11-06T04:52:24.690Z,98.30
2022-11-06T04:54:53.267Z,98.70
2022-11-06T04:59:47.138Z,98.50
2022-11-06T05:04:41.364Z,98.50
2022-11-06T05:07:08.862Z,98.40
2022-11-06T05:16:59.791Z,98.90
2022-11-06T05:19:26.505Z,98.80
2022-11-06T05:22:11.727Z,98.60
2022-11-06T05:24:38.446Z,98.90
2022-11-06T05:27:05.216Z,99.10
2022-11-06T05:31:59.103Z,98.90
2022-11-06T05:41:47.100Z,99.20
2022-11-06T05:46:49.897Z,99.40
2022-11-06T05:49:18.402Z,99.40
2022-11-06T05:59:06.590Z,99.60
2022-11-06T06:01:33.590Z,99.50
2022-11-06T06:08:54.698Z,99.60
2022-11-06T06:16:16.338Z,99.70
2022-11-06T06:21:10.285Z,99.50
2022-11-06T06:26:05.635Z,99.90
2022-11-06T06:28:32.877Z,99.80
2022-11-06T06:38:23.199Z,99.40
2022-11-06T06:40:49.932Z,99.40
2022-11-06T06:43:16.701Z,99.30
2022-11-06T06:45:43.694Z,99.20
2022-11-06T06:48:10.794Z,99.40
2022-11-06T06:58:00.161Z,99.50
2022-11-06T07:00:28.200Z,99.50
2022-11-06T07:05:22.387Z,99.00
2022-11-06T07:10:16.498Z,98.80
2022-11-06T07:15:10.717Z,98.40
2022-11-06T07:20:05.401Z,97.10
2022-11-06T07:22:37.079Z,96.50
2022-11-06T07:25:05.863Z,95.90
2022-11-06T07:27:33.594Z,95.30
2022-11-06T07:30:00.569Z,94.40
2022-11-06T07:34:54.680Z,91.50
2022-11-06T07:39:48.544Z,90.90
2022-11-06T07:42:15.245Z,90.50
2022-11-06T07:49:36.171Z,90.90
2022-11-06T07:52:04.468Z,90.30
2022-11-06T07:56:58.285Z,89.40
2022-11-06T07:59:25.017Z,89.10
2022-11-06T08:09:14.106Z,88.20
2022-11-06T08:11:40.816Z,87.80
2022-11-06T08:14:07.630Z,87.60
2022-11-06T08:21:28.790Z,87.30
2022-11-06T08:23:55.533Z,86.70
2022-11-06T08:28:49.427Z,87.10
2022-11-06T08:31:16.253Z,86.80
2022-11-06T08:33:43.052Z,86.40
2022-11-06T08:36:10.372Z,88.00
2022-11-06T08:38:37.091Z,85.80
2022-11-06T08:41:08.818Z,84.50
2022-11-06T08:43:35.707Z,84.20
2022-11-06T08:46:03.787Z,85.70
2022-11-06T08:48:31.573Z,86.80
2022-11-06T08:50:58.440Z,86.10
2022-11-06T08:55:52.710Z,85.60
2022-11-06T08:58:19.906Z,86.20
2022-11-06T09:03:16.594Z,85.20
2022-11-06T09:05:44.307Z,84.30
2022-11-06T09:08:11.779Z,83.70
2022-11-06T09:10:40.026Z,84.60
2022-11-06T09:15:34.187Z,83.70
2022-11-06T09:20:28.128Z,82.60
2022-11-06T09:22:59.666Z,80.90
2022-11-06T09:25:26.479Z,81.20
2022-11-06T09:27:58.815Z,80.90
2022-11-06T09:30:28.660Z,81.70
2022-11-06T09:33:00.725Z,81.70
2022-11-06T09:35:29.929Z,80.70
2022-11-06T09:38:04.802Z,80.50
2022-11-06T09:40:42.380Z,79.40
2022-11-06T09:43:43.167Z,79.70
2022-11-06T09:46:25.950Z,78.50
2022-11-06T09:49:11.578Z,78.60
2022-11-06T09:52:13.563Z,79.80
2022-11-06T09:54:45.705Z,76.80
2022-11-06T09:57:37.269Z,76.40
2022-11-06T10:00:05.910Z,77.10
2022-11-06T10:02:52.594Z,77.50
2022-11-06T10:05:25.662Z,79.90
2022-11-06T10:08:04.157Z,78.90
2022-11-06T10:10:40.395Z,77.70
2022-11-06T10:13:44.450Z,74.50
2022-11-06T10:16:30.722Z,76.80
2022-11-06T10:19:20.035Z,77.00
2022-11-06T10:22:07.832Z,76.80
2022-11-06T10:25:22.889Z,76.90
2022-11-06T10:28:03.631Z,77.60
2022-11-06T10:30:51.706Z,78.60
2022-11-06T10:33:51.162Z,78.90
2022-11-06T10:36:28.155Z,78.20
2022-11-06T10:38:56.317Z,78.90
2022-11-06T10:41:28.768Z,79.20
2022-11-06T10:43:57.921Z,79.30
2022-11-06T10:46:49.706Z,81.10
2022-11-06T10:49:23.721Z,80.60
2022-11-06T10:52:05.479Z,82.00
2022-11-06T10:54:50.674Z,82.60
2022-11-06T10:57:42.118Z,83.40
2022-11-06T11:00:13.924Z,83.50
2022-11-06T11:02:55.676Z,83.70
2022-11-06T11:05:25.531Z,80.60
2022-11-06T11:07:52.734Z,80.50
2022-11-06T11:10:25.656Z,77.80
2022-11-06T11:12:55.160Z,81.80
2022-11-06T11:15:23.633Z,81.60
2022-11-06T11:18:08.705Z,82.40
2022-11-06T11:20:37.298Z,83.50
2022-11-06T11:23:22.014Z,82.20
2022-11-06T11:25:54.593Z,81.10
2022-11-06T11:28:31.945Z,80.60
2022-11-06T11:31:11.844Z,80.00
2022-11-06T11:33:40.619Z,82.10
2022-11-06T11:36:10.099Z,82.00
2022-11-06T11:38:39.916Z,80.30
2022-11-06T11:41:21.778Z,80.50
2022-11-06T11:44:06.440Z,81.10
2022-11-06T11:46:34.133Z,80.80
2022-11-06T11:51:39.542Z,79.20
2022-11-06T11:54:20.372Z,81.10
2022-11-06T11:57:05.868Z,81.80
2022-11-06T11:59:46.962Z,82.20
2022-11-06T12:02:16.231Z,81.60
2022-11-06T12:04:46.562Z,81.30
2022-11-06T12:07:35.907Z,82.90
2022-11-06T12:10:19.414Z,83.90
2022-11-06T12:12:51.337Z,84.40
2022-11-06T12:15:39.946Z,84.30
2022-11-06T12:18:12.769Z,83.70
2022-11-06T12:20:54.332Z,82.90
2022-11-06T12:23:58.821Z,80.30
2022-11-06T12:26:37.247Z,79.50
2022-11-06T12:29:39.470Z,80.50
2022-11-06T12:32:15.200Z,79.90
2022-11-06T12:35:09.735Z,80.60
2022-11-06T12:38:22.671Z,81.00
2022-11-06T12:41:02.807Z,82.40
2022-11-06T12:46:15.297Z,84.30
2022-11-06T12:51:33.810Z,85.30
2022-11-06T12:54:33.290Z,85.20
2022-11-06T12:57:23.839Z,85.40
2022-11-06T13:00:09.604Z,86.50
2022-11-06T13:02:58.328Z,86.10
2022-11-06T13:06:00.145Z,85.70
2022-11-06T13:08:32.983Z,86.00
2022-11-06T13:11:13.714Z,86.00
2022-11-06T13:14:07.343Z,85.40
2022-11-06T13:16:53.028Z,85.60
2022-11-06T13:20:00.324Z,84.80
2022-11-06T13:22:44.498Z,85.20
2022-11-06T13:25:24.578Z,85.10
2022-11-06T13:28:01.938Z,84.90
2022-11-06T13:30:30.382Z,85.70
2022-11-06T13:33:00.526Z,85.90
2022-11-06T13:35:28.209Z,86.30
2022-11-06T13:37:57.069Z,86.00
2022-11-06T13:40:32.544Z,85.80
2022-11-06T13:43:12.533Z,86.50
2022-11-06T13:46:07.538Z,85.80
2022-11-06T13:48:56.209Z,85.30
2022-11-06T13:51:51.960Z,85.40
2022-11-06T13:54:39.873Z,85.30
2022-11-06T13:57:06.558Z,84.80
2022-11-06T13:59:36.396Z,85.60
2022-11-06T14:02:25.103Z,85.80
2022-11-06T14:05:13.623Z,86.30
2022-11-06T14:07:41.679Z,86.50
2022-11-06T14:10:20.262Z,86.20
2022-11-06T14:12:49.121Z,86.10
2022-11-06T14:15:21.966Z,86.50
2022-11-06T14:17:57.873Z,85.90
2022-11-06T14:20:33.029Z,86.70
2022-11-06T14:23:29.203Z,86.40
2022-11-06T14:26:11.839Z,86.60
2022-11-06T14:28:47.666Z,87.30
2022-11-06T14:32:03.505Z,86.20
2022-11-06T14:34:35.376Z,85.70
2022-11-06T14:37:30.747Z,85.80
2022-11-06T14:39:57.920Z,85.90
2022-11-06T14:44:57.315Z,85.00
2022-11-06T14:47:30.072Z,84.80
2022-11-06T14:50:00.879Z,84.70
2022-11-06T14:52:28.866Z,84.70
2022-11-06T14:55:04.659Z,84.50
2022-11-06T14:57:41.498Z,84.50
2022-11-06T15:00:12.938Z,84.20
2022-11-06T15:02:41.162Z,84.20
2022-11-06T15:05:17.883Z,84.30
2022-11-06T15:10:58.233Z,83.80
2022-11-06T15:13:26.356Z,84.00
2022-11-06T15:15:57.790Z,84.20
2022-11-06T15:18:25.908Z,83.70
2022-11-06T15:20:58.588Z,83.60
2022-11-06T15:23:28.424Z,84.20
2022-11-06T15:26:18.315Z,83.60
2022-11-06T15:28:51.624Z,83.40
2022-11-06T15:31:20.580Z,83.60
2022-11-06T15:34:04.632Z,83.70
2022-11-06T15:36:41.430Z,83.20
2022-11-06T15:39:38.263Z,83.20
2022-11-06T15:42:08.940Z,83.10
2022-11-06T15:44:40.912Z,83.20
2022-11-06T15:47:23.969Z,83.30
2022-11-06T15:50:12.561Z,83.30
2022-11-06T15:52:40.036Z,83.50
2022-11-06T15:55:12.161Z,83.40
2022-11-06T15:57:38.953Z,83.40
2022-11-06T16:00:23.810Z,83.00
2022-11-06T16:02:59.557Z,83.00
2022-11-06T16:05:29.517Z,82.70
2022-11-06T16:07:57.741Z,82.40
2022-11-06T16:10:24.925Z,82.30
2022-11-06T16:12:53.941Z,82.40
2022-11-06T16:15:45.571Z,82.10
2022-11-06T16:18:22.427Z,82.20
2022-11-06T16:20:51.391Z,82.20
2022-11-06T16:23:46.615Z,81.90
2022-11-06T16:26:18.271Z,81.80
2022-11-06T16:28:48.268Z,82.10
2022-11-06T16:31:22.490Z,81.90
2022-11-06T16:33:59.398Z,81.90
2022-11-06T16:36:28.432Z,81.50
2022-11-06T16:39:18.183Z,81.30
2022-11-06T16:42:06.650Z,81.40
2022-11-06T16:44:36.466Z,81.20
2022-11-06T16:47:19.717Z,81.10
2022-11-06T16:49:53.935Z,81.40
2022-11-06T16:52:40.597Z,81.60
2022-11-06T16:57:46.447Z,81.70
2022-11-06T17:00:22.198Z,81.70
2022-11-06T17:02:55.687Z,81.80
2022-11-06T17:05:32.230Z,81.90
2022-11-06T17:08:17.524Z,82.10
2022-11-06T17:10:51.863Z,82.40
2022-11-06T17:13:28.597Z,82.40
2022-11-06T17:16:03.722Z,82.10
2022-11-06T17:18:33.025Z,82.20
2022-11-06T17:21:01.918Z,82.20
2022-11-06T17:23:30.373Z,82.20
2022-11-06T17:26:03.505Z,82.20
2022-11-06T17:33:24.871Z,82.10
2022-11-06T17:40:47.296Z,82.40
2022-11-06T17:45:44.344Z,82.50
2022-11-06T17:48:11.116Z,82.80
2022-11-06T17:53:23.881Z,82.20
2022-11-06T18:03:20.517Z,82.10
2022-11-06T18:08:15.537Z,84.40
2022-11-06T18:18:04.561Z,86.70
2022-11-06T18:25:25.986Z,89.90
2022-11-06T18:35:14.357Z,91.50
2022-11-06T18:37:41.155Z,91.40
2022-11-06T18:40:08.432Z,92.10
2022-11-06T18:45:02.488Z,93.50
2022-11-06T18:47:29.230Z,93.60
2022-11-06T18:57:37.769Z,94.50
2022-11-06T19:00:05.315Z,94.50
2022-11-06T19:02:32.470Z,95.00
2022-11-06T19:04:59.859Z,94.70
2022-11-06T19:19:43.005Z,94.00
2022-11-06T19:34:30.756Z,95.50
2022-11-06T19:44:20.772Z,96.50
2022-11-06T20:04:19.992Z,97.00
2022-11-06T20:23:57.522Z,96.80
2022-11-06T20:26:24.553Z,97.10
2022-11-06T20:31:23.164Z,96.30
2022-11-06T20:33:50.665Z,96.60
2022-11-06T20:36:29.453Z,96.60
2022-11-06T20:38:59.162Z,97.10
2022-11-06T20:41:27.086Z,96.50
2022-11-06T20:43:54.305Z,96.50
2022-11-06T20:46:22.214Z,96.20
2022-11-06T20:48:49.858Z,96.60
2022-11-06T20:51:19.870Z,96.30
2022-11-06T20:53:47.075Z,96.20
2022-11-06T20:56:16.553Z,95.80
2022-11-06T20:58:44.085Z,95.30
2022-11-06T21:01:18.191Z,95.50
2022-11-06T21:03:46.133Z,94.60
2022-11-06T21:08:41.605Z,94.60
2022-11-06T21:11:18.109Z,94.30
2022-11-06T21:13:49.169Z,93.80
2022-11-06T21:16:24.855Z,93.20
2022-11-06T21:18:52.562Z,92.80
2022-11-06T21:21:23.209Z,92.40
2022-11-06T21:23:51.115Z,92.10
2022-11-06T21:26:21.188Z,91.60
2022-11-06T21:28:48.580Z,91.30
2022-11-06T21:31:17.888Z,91.40
2022-11-06T21:33:46.658Z,91.40
2022-11-06T21:36:17.609Z,91.00
2022-11-06T21:41:14.820Z,90.80
2022-11-06T21:43:42.169Z,90.20
2022-11-06T21:46:11.405Z,89.60
2022-11-06T21:48:47.299Z,89.50
2022-11-06T21:51:26.876Z,89.40
2022-11-06T21:54:13.390Z,89.10
2022-11-06T21:59:10.648Z,89.80
2022-11-06T22:01:38.347Z,89.10
2022-11-06T22:04:05.772Z,89.10
2022-11-06T22:06:32.997Z,89.80
2022-11-06T22:09:02.173Z,89.70
2022-11-06T22:11:38.140Z,89.60
2022-11-06T22:14:08.447Z,89.60
2022-11-06T22:16:38.687Z,89.20
2022-11-06T22:19:07.286Z,89.40
2022-11-06T22:21:35.811Z,89.60
2022-11-06T22:26:32.232Z,89.70
2022-11-06T22:29:01.165Z,90.10
2022-11-06T22:31:28.910Z,89.90
2022-11-06T22:36:23.581Z,90.60
2022-11-06T22:38:52.024Z,90.60
2022-11-06T22:41:21.700Z,90.70
2022-11-06T22:46:19.078Z,91.30
2022-11-06T22:51:19.434Z,91.60
2022-11-06T22:53:46.207Z,91.50
2022-11-06T22:56:13.894Z,91.60
2022-11-06T22:58:41.670Z,92.00
2022-11-06T23:01:10.043Z,92.10
2022-11-06T23:03:37.091Z,91.80
2022-11-06T23:06:09.476Z,92.10
2022-11-06T23:08:44.139Z,92.30
2022-11-06T23:11:14.547Z,92.40
2022-11-06T23:13:41.446Z,92.80
2022-11-06T23:16:14.697Z,92.80
2022-11-06T23:18:42.062Z,92.60
2022-11-06T23:21:17.097Z,92.90
2022-11-06T23:23:45.158Z,92.90
2022-11-06T23:26:13.611Z,93.10
2022-11-06T23:28:40.838Z,93.10
2022-11-06T23:31:09.077Z,93.20
2022-11-06T23:36:10.427Z,93.80
2022-11-06T23:38:37.314Z,93.80
2022-11-06T23:41:35.147Z,93.90
2022-11-06T23:44:03.598Z,94.00
2022-11-06T23:46:32.816Z,94.20
2022-11-06T23:49:00.174Z,94.10
2022-11-06T23:51:27.705Z,94.40
2022-11-06T23:56:21.817Z,94.60
